createdAt,value
2022-09-09T00:00:24.242Z,2.10
2022-09-09T00:03:03.478Z,1.87
2022-09-09T00:05:40.130Z,2.57
2022-09-09T00:08:21.098Z,1.70
2022-09-09T00:10:56.581Z,2.00
2022-09-09T00:13:33.490Z,1.93
2022-09-09T00:16:13.450Z,2.00
2022-09-09T00:18:54.196Z,1.50
2022-09-09T00:21:27.513Z,1.80
2022-09-09T00:23:57.109Z,1.70
2022-09-09T00:26:35.006Z,1.63
2022-09-09T00:29:17.298Z,2.00
2022-09-09T00:31:47.839Z,2.10
2022-09-09T00:34:22.500Z,2.00
2022-09-09T00:36:53.307Z,1.93
2022-09-09T00:39:37.166Z,2.07
2022-09-09T00:42:16.074Z,2.00
2022-09-09T00:44:58.363Z,1.97
2022-09-09T00:47:46.300Z,1.80
2022-09-09T00:50:39.640Z,2.00
2022-09-09T00:53:30.948Z,1.53
2022-09-09T00:56:11.989Z,1.90
2022-09-09T00:58:40.223Z,2.00
2022-09-09T01:01:14.109Z,1.97
2022-09-09T01:03:50.865Z,1.70
2022-09-09T01:06:31.750Z,1.67
2022-09-09T01:09:19.323Z,1.77
2022-09-09T01:12:03.768Z,1.90
2022-09-09T01:14:45.257Z,1.80
2022-09-09T01:17:20.315Z,2.07
2022-09-09T01:20:03.101Z,1.70
2022-09-09T01:22:39.203Z,1.80
2022-09-09T01:25:32.147Z,1.80
2022-09-09T01:28:05.858Z,1.50
2022-09-09T01:30:35.622Z,1.50
2022-09-09T01:33:04.549Z,1.53
2022-09-09T01:35:51.805Z,1.37
2022-09-09T01:38:20.665Z,1.60
2022-09-09T01:40:50.020Z,1.80
2022-09-09T01:43:20.239Z,1.50
2022-09-09T01:45:50.158Z,1.80
2022-09-09T01:48:19.006Z,1.47
2022-09-09T01:50:47.389Z,1.67
2022-09-09T01:53:18.333Z,2.47
2022-09-09T01:55:56.635Z,1.70
2022-09-09T01:58:37.520Z,1.80
2022-09-09T02:01:18.067Z,1.57
2022-09-09T02:03:54.415Z,1.40
2022-09-09T02:06:32.287Z,1.60
2022-09-09T02:09:04.852Z,1.67
2022-09-09T02:11:34.325Z,2.00
2022-09-09T02:14:10.952Z,1.90
2022-09-09T02:16:44.629Z,1.70
2022-09-09T02:19:18.076Z,1.80
2022-09-09T02:21:48.171Z,2.20
2022-09-09T02:24:18.215Z,1.67
2022-09-09T02:26:53.220Z,1.70
2022-09-09T02:29:29.007Z,1.57
2022-09-09T02:32:03.084Z,1.67
2022-09-09T02:34:34.948Z,1.80
2022-09-09T02:37:05.807Z,1.80
2022-09-09T02:39:34.046Z,1.90
2022-09-09T02:42:04.785Z,1.80
2022-09-09T02:44:34.636Z,1.83
2022-09-09T02:47:21.926Z,2.10
2022-09-09T02:50:04.691Z,2.00
2022-09-09T02:52:50.238Z,1.90
2022-09-09T02:55:26.685Z,1.90
2022-09-09T02:57:57.098Z,1.70
2022-09-09T03:00:29.215Z,1.80
2022-09-09T03:02:58.264Z,1.80
2022-09-09T03:05:27.210Z,1.90
2022-09-09T03:07:55.414Z,1.93
2022-09-09T03:10:24.182Z,2.13
2022-09-09T03:12:52.431Z,1.90
2022-09-09T03:15:20.885Z,2.10
2022-09-09T03:17:50.534Z,1.63
2022-09-09T03:20:18.931Z,1.70
2022-09-09T03:22:47.145Z,2.00
2022-09-09T03:25:15.628Z,2.00
2022-09-09T03:27:43.873Z,1.97
2022-09-09T03:30:13.125Z,1.83
2022-09-09T03:32:41.390Z,1.90
2022-09-09T03:35:11.366Z,2.70
2022-09-09T03:37:39.977Z,2.13
2022-09-09T03:40:10.849Z,1.70
2022-09-09T03:42:39.651Z,1.93
2022-09-09T03:45:11.601Z,1.70
2022-09-09T03:47:39.998Z,2.10
2022-09-09T03:50:12.031Z,1.90
2022-09-09T03:52:41.726Z,1.70
2022-09-09T03:55:10.858Z,2.03
2022-09-09T03:57:39.827Z,1.80
2022-09-09T04:00:11.325Z,1.70
2022-09-09T04:02:40.293Z,1.73
2022-09-09T04:05:10.922Z,1.97
2022-09-09T04:07:39.170Z,1.77
2022-09-09T04:10:09.694Z,2.00
2022-09-09T04:12:37.908Z,1.70
2022-09-09T04:15:07.796Z,1.87
2022-09-09T04:17:37.288Z,1.90
2022-09-09T04:20:06.241Z,1.53
2022-09-09T04:22:35.888Z,1.60
2022-09-09T04:25:04.219Z,1.60
2022-09-09T04:27:32.643Z,1.77
2022-09-09T04:30:00.880Z,2.03
2022-09-09T04:32:29.153Z,1.90
2022-09-09T04:34:57.474Z,1.80
2022-09-09T04:37:25.877Z,1.73
2022-09-09T04:39:55.540Z,1.70
2022-09-09T04:42:23.859Z,1.93
2022-09-09T04:44:52.067Z,1.90
2022-09-09T04:47:20.330Z,2.10
2022-09-09T04:49:48.561Z,1.80
2022-09-09T04:52:18.231Z,1.73
2022-09-09T04:54:46.989Z,1.60
2022-09-09T04:57:18.776Z,1.90
2022-09-09T04:59:47.250Z,1.70
2022-09-09T05:02:15.579Z,1.73
2022-09-09T05:04:43.911Z,1.60
2022-09-09T05:07:12.219Z,1.50
2022-09-09T05:09:40.491Z,1.40
2022-09-09T05:12:09.315Z,1.70
2022-09-09T05:14:39.167Z,1.57
2022-09-09T05:17:07.431Z,1.60
2022-09-09T05:19:35.703Z,1.77
2022-09-09T05:22:04.711Z,2.30
2022-09-09T05:24:34.254Z,1.90
2022-09-09T05:27:03.489Z,1.70
2022-09-09T05:29:34.342Z,1.83
2022-09-09T05:32:05.154Z,1.80
2022-09-09T05:34:33.409Z,1.60
2022-09-09T05:37:01.763Z,1.60
2022-09-09T05:39:30.099Z,1.67
2022-09-09T05:41:58.410Z,1.70
2022-09-09T05:44:28.640Z,1.60
2022-09-09T05:46:57.628Z,2.00
2022-09-09T05:49:27.482Z,2.10
2022-09-09T05:51:55.762Z,1.60
2022-09-09T05:54:25.151Z,1.60
2022-09-09T05:56:54.637Z,1.63
2022-09-09T05:59:24.267Z,1.70
2022-09-09T06:01:54.575Z,1.53
2022-09-09T06:04:25.304Z,1.60
2022-09-09T06:06:54.956Z,1.60
2022-09-09T06:09:23.876Z,1.73
2022-09-09T06:11:52.123Z,1.83
2022-09-09T06:14:20.440Z,1.90
2022-09-09T06:16:48.703Z,1.53
2022-09-09T06:19:17.051Z,1.87
2022-09-09T06:21:45.537Z,1.60
2022-09-09T06:24:18.321Z,1.70
2022-09-09T06:26:46.586Z,1.90
2022-09-09T06:29:14.906Z,2.03
2022-09-09T06:31:43.259Z,1.90
2022-09-09T06:34:11.663Z,2.33
2022-09-09T06:36:41.348Z,2.50
2022-09-09T06:39:14.668Z,1.93
2022-09-09T06:41:44.970Z,1.93
2022-09-09T06:44:13.751Z,2.17
2022-09-09T06:46:42.340Z,2.30
2022-09-09T06:49:11.390Z,2.23
2022-09-09T06:51:43.763Z,2.07
2022-09-09T06:54:13.535Z,2.50
2022-09-09T06:56:46.406Z,1.90
2022-09-09T06:59:14.976Z,2.13
2022-09-09T07:01:45.714Z,2.20
2022-09-09T07:04:14.476Z,2.10
2022-09-09T07:06:45.815Z,1.97
2022-09-09T07:09:17.280Z,2.40
2022-09-09T07:11:49.497Z,2.23
2022-09-09T07:14:18.658Z,2.13
2022-09-09T07:16:48.045Z,2.37
2022-09-09T07:19:16.715Z,2.03
2022-09-09T07:21:46.213Z,2.03
2022-09-09T07:24:14.417Z,2.30
2022-09-09T07:26:43.035Z,2.10
2022-09-09T07:29:19.840Z,2.43
2022-09-09T07:31:49.446Z,2.27
2022-09-09T07:34:17.999Z,2.57
2022-09-09T07:36:47.316Z,2.57
2022-09-09T07:39:18.365Z,2.53
2022-09-09T07:41:48.737Z,2.40
2022-09-09T07:44:22.398Z,2.50
2022-09-09T07:46:51.561Z,2.20
2022-09-09T07:49:26.246Z,2.80
2022-09-09T07:51:57.138Z,2.47
2022-09-09T07:54:25.559Z,2.83
2022-09-09T07:56:54.615Z,2.87
2022-09-09T07:59:25.333Z,2.90
2022-09-09T08:01:55.958Z,2.70
2022-09-09T08:04:26.399Z,2.47
2022-09-09T08:06:58.213Z,2.77
2022-09-09T08:09:29.734Z,2.30
2022-09-09T08:11:59.426Z,2.40
2022-09-09T08:14:29.939Z,2.27
2022-09-09T08:16:58.207Z,2.73
2022-09-09T08:19:26.578Z,3.40
2022-09-09T08:21:55.113Z,3.97
2022-09-09T08:24:24.163Z,3.70
2022-09-09T08:26:52.418Z,3.17
2022-09-09T08:29:20.991Z,3.67
2022-09-09T08:31:53.867Z,3.80
2022-09-09T08:34:22.738Z,3.90
2022-09-09T08:36:52.577Z,4.20
2022-09-09T08:39:23.805Z,4.47
2022-09-09T08:42:33.487Z,3.90
2022-09-09T08:45:21.338Z,4.03
2022-09-09T08:48:10.917Z,4.23
2022-09-09T08:50:42.404Z,3.70
2022-09-09T08:53:18.455Z,3.77
2022-09-09T08:55:50.955Z,3.57
2022-09-09T08:58:22.304Z,3.30
2022-09-09T09:01:40.569Z,3.40
2022-09-09T09:04:28.746Z,3.27
2022-09-09T09:07:09.684Z,3.23
2022-09-09T09:09:46.912Z,3.77
2022-09-09T09:12:20.662Z,3.30
2022-09-09T09:14:50.706Z,3.23
2022-09-09T09:17:21.970Z,3.03
2022-09-09T09:19:52.142Z,2.90
2022-09-09T09:22:26.310Z,2.77
2022-09-09T09:24:57.712Z,3.33
2022-09-09T09:27:36.189Z,2.83
2022-09-09T09:30:25.670Z,2.87
2022-09-09T09:33:02.379Z,2.70
2022-09-09T09:35:31.961Z,2.53
2022-09-09T09:40:58.922Z,3.20
2022-09-09T09:43:30.415Z,2.77
2022-09-09T09:46:17.888Z,3.00
2022-09-09T09:48:47.347Z,2.87
2022-09-09T09:51:19.793Z,2.40
2022-09-09T09:53:48.078Z,2.60
2022-09-09T09:56:17.386Z,2.63
2022-09-09T09:58:54.494Z,2.27
2022-09-09T10:01:26.422Z,2.33
2022-09-09T10:03:57.327Z,2.17
2022-09-09T10:06:39.114Z,2.50
2022-09-09T10:09:24.410Z,2.10
2022-09-09T10:12:02.583Z,2.47
2022-09-09T10:14:39.209Z,2.43
2022-09-09T10:17:22.969Z,2.33
2022-09-09T10:20:07.404Z,2.40
2022-09-09T10:22:37.070Z,2.70
2022-09-09T10:25:24.010Z,2.63
2022-09-09T10:28:12.742Z,2.60
2022-09-09T10:30:56.618Z,2.70
2022-09-09T10:33:35.249Z,2.33
2022-09-09T10:36:15.688Z,2.80
2022-09-09T10:38:48.456Z,2.53
2022-09-09T10:41:22.426Z,2.70
2022-09-09T10:44:31.636Z,2.40
2022-09-09T10:47:35.778Z,2.10
2022-09-09T10:50:38.100Z,2.10
2022-09-09T10:53:21.663Z,1.93
2022-09-09T10:55:56.010Z,2.27
2022-09-09T10:58:30.501Z,1.73
2022-09-09T11:01:04.007Z,1.93
2022-09-09T11:03:34.383Z,1.83
2022-09-09T11:06:08.124Z,2.27
2022-09-09T11:08:40.835Z,2.20
2022-09-09T11:11:18.844Z,2.00
2022-09-09T11:13:52.473Z,1.83
2022-09-09T11:16:29.398Z,2.23
2022-09-09T11:19:03.898Z,2.70
2022-09-09T11:21:40.742Z,2.10
2022-09-09T11:24:17.607Z,2.00
2022-09-09T11:26:54.351Z,2.53
2022-09-09T11:30:05.132Z,1.87
2022-09-09T11:33:05.325Z,2.30
2022-09-09T11:35:44.607Z,2.37
2022-09-09T11:38:27.802Z,2.00
2022-09-09T11:41:02.732Z,1.83
2022-09-09T11:43:35.238Z,2.07
2022-09-09T11:46:04.959Z,1.90
2022-09-09T11:48:37.682Z,1.90
2022-09-09T11:51:16.093Z,1.47
2022-09-09T11:53:53.813Z,1.77
2022-09-09T11:56:32.350Z,2.20
2022-09-09T11:59:05.054Z,2.20
2022-09-09T12:01:39.190Z,1.93
2022-09-09T12:04:29.921Z,2.13
2022-09-09T12:07:03.511Z,1.80
2022-09-09T12:09:47.586Z,1.83
2022-09-09T12:12:41.731Z,2.07
2022-09-09T12:15:30.235Z,1.50
2022-09-09T12:18:03.874Z,1.60
2022-09-09T12:20:38.399Z,1.50
2022-09-09T12:23:33.295Z,1.63
2022-09-09T12:26:18.608Z,1.90
2022-09-09T12:28:58.198Z,1.33
2022-09-09T12:31:35.619Z,1.53
2022-09-09T12:34:13.164Z,1.30
2022-09-09T12:36:48.708Z,1.63
2022-09-09T12:39:33.331Z,1.53
2022-09-09T12:42:02.314Z,1.23
2022-09-09T12:44:30.612Z,1.60
2022-09-09T12:47:04.566Z,1.37
2022-09-09T12:49:36.585Z,1.20
2022-09-09T12:52:10.916Z,1.30
2022-09-09T12:54:39.897Z,1.10
2022-09-09T12:57:13.480Z,1.10
2022-09-09T12:59:46.110Z,1.40
2022-09-09T13:02:23.027Z,1.40
2022-09-09T13:04:52.546Z,1.27
2022-09-09T13:07:22.626Z,1.60
2022-09-09T13:09:51.885Z,1.30
2022-09-09T13:12:24.027Z,1.20
2022-09-09T13:14:57.156Z,1.53
2022-09-09T13:17:30.026Z,1.50
2022-09-09T13:19:59.294Z,1.40
2022-09-09T13:22:34.158Z,1.63
2022-09-09T13:25:06.732Z,1.53
2022-09-09T13:27:39.826Z,1.43
2022-09-09T13:30:25.228Z,1.40
2022-09-09T13:33:23.642Z,1.57
2022-09-09T13:35:56.456Z,1.40
2022-09-09T13:38:27.666Z,1.13
2022-09-09T13:41:03.249Z,1.40
2022-09-09T13:43:34.363Z,1.57
2022-09-09T13:46:04.873Z,1.80
2022-09-09T13:48:34.631Z,1.50
2022-09-09T13:51:06.833Z,1.40
2022-09-09T13:53:35.157Z,1.60
2022-09-09T13:56:03.786Z,1.80
2022-09-09T13:58:31.963Z,1.40
2022-09-09T14:01:00.492Z,1.53
2022-09-09T14:03:28.775Z,1.60
2022-09-09T14:05:58.822Z,1.23
2022-09-09T14:08:29.883Z,1.40
2022-09-09T14:11:00.489Z,1.07
2022-09-09T14:13:28.758Z,1.50
2022-09-09T14:15:57.591Z,1.67
2022-09-09T14:18:26.422Z,1.00
2022-09-09T14:20:54.969Z,1.10
2022-09-09T14:23:25.346Z,1.13
2022-09-09T14:25:54.073Z,1.00
2022-09-09T14:30:56.633Z,1.07
2022-09-09T14:33:25.747Z,1.07
2022-09-09T14:35:59.093Z,1.20
2022-09-09T14:38:32.869Z,0.90
2022-09-09T14:41:01.394Z,1.00
2022-09-09T14:43:30.970Z,1.10
2022-09-09T14:45:59.210Z,1.20
2022-09-09T14:48:27.446Z,0.97
2022-09-09T14:50:56.352Z,1.00
2022-09-09T14:53:24.629Z,0.90
2022-09-09T14:55:54.231Z,1.20
2022-09-09T14:58:22.444Z,0.93
2022-09-09T15:00:50.674Z,1.03
2022-09-09T15:03:18.928Z,1.00
2022-09-09T15:05:47.131Z,1.00
2022-09-09T15:08:17.728Z,0.97
2022-09-09T15:10:46.038Z,1.17
2022-09-09T15:13:18.104Z,1.23
2022-09-09T15:15:46.328Z,1.03
2022-09-09T15:18:16.915Z,1.03
2022-09-09T15:20:47.428Z,0.90
2022-09-09T15:23:16.276Z,0.80
2022-09-09T15:25:54.034Z,1.90
2022-09-09T15:28:24.442Z,1.60
2022-09-09T15:30:54.088Z,1.17
2022-09-09T15:33:24.493Z,1.00
2022-09-09T15:35:52.975Z,1.07
2022-09-09T15:38:21.173Z,0.90
2022-09-09T15:40:56.518Z,0.97
2022-09-09T15:43:26.123Z,0.77
2022-09-09T15:46:19.971Z,1.00
2022-09-09T15:48:52.405Z,0.70
2022-09-09T15:54:14.317Z,0.90
2022-09-09T15:56:43.191Z,0.70
2022-09-09T15:59:12.857Z,0.60
2022-09-09T16:01:43.304Z,0.90
2022-09-09T16:04:11.967Z,0.80
2022-09-09T16:06:40.420Z,0.80
2022-09-09T16:09:10.951Z,0.60
2022-09-09T16:11:41.445Z,0.70
2022-09-09T16:14:10.066Z,0.83
2022-09-09T16:16:40.011Z,0.80
2022-09-09T16:19:11.498Z,1.00
2022-09-09T16:21:42.751Z,1.00
2022-09-09T16:24:14.377Z,0.90
2022-09-09T16:26:46.228Z,0.60
2022-09-09T16:29:16.273Z,0.67
2022-09-09T16:31:46.813Z,0.77
2022-09-09T16:34:16.392Z,0.60
2022-09-09T16:36:45.941Z,0.77
2022-09-09T16:39:16.853Z,0.70
2022-09-09T16:41:48.210Z,0.60
2022-09-09T16:44:19.348Z,0.73
2022-09-09T16:46:55.609Z,0.47
2022-09-09T16:49:26.446Z,0.60
2022-09-09T16:51:54.742Z,0.67
2022-09-09T16:54:24.468Z,0.50
2022-09-09T16:56:52.702Z,0.80
2022-09-09T16:59:22.762Z,0.80
2022-09-09T17:01:54.469Z,0.73
2022-09-09T17:04:27.285Z,0.60
2022-09-09T17:06:58.203Z,0.70
2022-09-09T17:09:30.094Z,0.37
2022-09-09T17:11:59.413Z,0.80
2022-09-09T17:14:27.770Z,0.83
2022-09-09T17:17:09.160Z,1.13
2022-09-09T17:19:45.723Z,0.60
2022-09-09T17:22:17.328Z,0.67
2022-09-09T17:24:46.709Z,0.80
2022-09-09T17:27:15.033Z,0.97
2022-09-09T17:29:43.801Z,0.70
2022-09-09T17:32:13.437Z,0.70
2022-09-09T17:34:41.740Z,0.90
2022-09-09T17:37:10.194Z,0.97
2022-09-09T17:39:38.576Z,0.60
2022-09-09T17:42:08.401Z,0.60
2022-09-09T17:44:36.711Z,0.77
2022-09-09T17:47:07.080Z,0.50
2022-09-09T17:49:36.810Z,0.77
2022-09-09T17:52:05.169Z,0.90
2022-09-09T17:54:34.568Z,0.80
2022-09-09T17:57:02.941Z,0.70
2022-09-09T17:59:31.591Z,0.70
2022-09-09T18:02:00.286Z,0.50
2022-09-09T18:04:28.806Z,1.03
2022-09-09T18:06:59.302Z,0.60
2022-09-09T18:09:29.256Z,0.73
2022-09-09T18:12:00.152Z,0.70
2022-09-09T18:14:32.581Z,0.73
2022-09-09T18:17:04.000Z,0.70
2022-09-09T18:19:34.541Z,0.80
2022-09-09T18:22:06.899Z,0.80
2022-09-09T18:24:36.347Z,0.80
2022-09-09T18:27:04.958Z,0.70
2022-09-09T18:29:33.281Z,0.70
2022-09-09T18:32:01.649Z,0.63
2022-09-09T18:34:30.759Z,0.60
2022-09-09T18:36:59.157Z,0.60
2022-09-09T18:39:30.620Z,0.60
2022-09-09T18:42:01.440Z,0.90
2022-09-09T18:44:33.356Z,0.77
2022-09-09T18:47:02.882Z,0.80
2022-09-09T18:49:31.507Z,0.97
2022-09-09T18:51:59.769Z,0.80
2022-09-09T18:54:33.371Z,0.80
2022-09-09T18:57:02.117Z,0.90
2022-09-09T18:59:31.051Z,0.70
2022-09-09T19:01:59.786Z,1.00
2022-09-09T19:04:28.332Z,0.87
2022-09-09T19:06:58.770Z,0.70
2022-09-09T19:09:31.859Z,0.73
2022-09-09T19:12:01.286Z,0.80
2022-09-09T19:14:30.471Z,0.70
2022-09-09T19:16:58.943Z,0.80
2022-09-09T19:19:31.187Z,0.90
2022-09-09T19:22:00.126Z,1.00
2022-09-09T19:24:32.775Z,0.90
2022-09-09T19:27:06.776Z,1.20
2022-09-09T19:29:39.449Z,1.00
2022-09-09T19:34:57.196Z,0.80
2022-09-09T19:37:25.736Z,0.80
2022-09-09T19:39:55.471Z,0.87
2022-09-09T19:42:23.831Z,1.20
2022-09-09T19:44:52.425Z,0.90
2022-09-09T19:47:21.490Z,1.00
2022-09-09T19:49:50.499Z,0.70
2022-09-09T19:52:19.841Z,0.90
2022-09-09T19:54:48.433Z,1.10
2022-09-09T19:57:19.633Z,1.10
2022-09-09T19:59:48.123Z,0.90
2022-09-09T20:02:16.869Z,1.10
2022-09-09T20:04:45.475Z,1.30
2022-09-09T20:07:14.855Z,1.20
2022-09-09T20:09:43.217Z,1.07
2022-09-09T20:12:11.572Z,1.20
2022-09-09T20:14:41.246Z,0.87
2022-09-09T20:17:10.305Z,1.07
2022-09-09T20:19:39.766Z,1.13
2022-09-09T20:22:08.268Z,1.00
2022-09-09T20:24:38.080Z,1.13
2022-09-09T20:27:08.143Z,1.20
2022-09-09T20:29:37.625Z,1.03
2022-09-09T20:32:07.752Z,1.10
2022-09-09T20:34:36.105Z,0.90
2022-09-09T20:37:04.899Z,1.20
2022-09-09T20:39:33.515Z,1.10
2022-09-09T20:42:02.382Z,1.33
2022-09-09T20:44:31.426Z,1.27
2022-09-09T20:47:06.170Z,1.00
2022-09-09T20:49:36.271Z,0.90
2022-09-09T20:52:04.878Z,1.10
2022-09-09T20:54:35.196Z,1.23
2022-09-09T20:57:03.459Z,1.10
2022-09-09T20:59:32.323Z,1.17
2022-09-09T21:02:00.921Z,1.00
2022-09-09T21:04:29.754Z,1.20
2022-09-09T21:06:59.335Z,0.90
2022-09-09T21:09:27.650Z,1.03
2022-09-09T21:11:55.923Z,0.93
2022-09-09T21:14:24.295Z,1.00
2022-09-09T21:16:52.571Z,0.80
2022-09-09T21:19:20.926Z,1.00
2022-09-09T21:21:49.170Z,1.03
2022-09-09T21:24:18.862Z,1.00
2022-09-09T21:26:47.118Z,1.07
2022-09-09T21:29:15.325Z,1.00
2022-09-09T21:31:44.269Z,1.10
2022-09-09T21:34:13.251Z,1.30
2022-09-09T21:36:42.014Z,0.70
2022-09-09T21:39:10.300Z,0.83
2022-09-09T21:41:40.087Z,0.97
2022-09-09T21:44:09.600Z,0.80
2022-09-09T21:46:38.706Z,0.80
2022-09-09T21:49:07.081Z,1.00
2022-09-09T21:51:35.327Z,1.03
2022-09-09T21:54:03.696Z,1.07
2022-09-09T21:56:32.101Z,0.73
2022-09-09T21:59:04.056Z,1.53
2022-09-09T22:01:34.241Z,1.00
2022-09-09T22:04:02.978Z,1.10
2022-09-09T22:06:31.302Z,1.10
2022-09-09T22:09:00.577Z,1.00
2022-09-09T22:11:31.267Z,1.50
2022-09-09T22:14:02.168Z,1.37
2022-09-09T22:16:31.700Z,1.20
2022-09-09T22:19:02.493Z,1.00
2022-09-09T22:21:33.015Z,1.30
2022-09-09T22:24:04.735Z,1.00
2022-09-09T22:26:36.196Z,1.10
2022-09-09T22:29:07.343Z,1.00
2022-09-09T22:31:37.099Z,1.17
2022-09-09T22:34:06.782Z,1.00
2022-09-09T22:36:35.367Z,1.57
2022-09-09T22:39:03.697Z,1.33
2022-09-09T22:41:32.111Z,1.37
2022-09-09T22:44:00.349Z,1.20
2022-09-09T22:46:30.277Z,1.20
2022-09-09T22:48:59.265Z,1.00
2022-09-09T22:51:27.607Z,1.20
2022-09-09T22:53:57.235Z,0.90
2022-09-09T22:56:25.531Z,1.00
2022-09-09T22:58:56.299Z,1.30
2022-09-09T23:01:27.757Z,1.17
2022-09-09T23:03:59.442Z,1.20
2022-09-09T23:06:29.476Z,1.00
2022-09-09T23:09:00.524Z,1.10
2022-09-09T23:11:31.897Z,1.20
2022-09-09T23:14:02.268Z,1.07
2022-09-09T23:16:34.414Z,1.07
2022-09-09T23:19:04.067Z,1.20
2022-09-09T23:21:32.955Z,1.20
2022-09-09T23:24:01.743Z,0.93
2022-09-09T23:26:30.196Z,1.30
2022-09-09T23:29:00.094Z,1.00
2022-09-09T23:31:30.673Z,1.00
2022-09-09T23:34:00.088Z,0.97
2022-09-09T23:36:30.933Z,1.00
2022-09-09T23:39:02.114Z,2.10
2022-09-09T23:41:31.388Z,0.90
2022-09-09T23:44:00.897Z,1.00
2022-09-09T23:46:31.327Z,0.90
2022-09-09T23:49:00.358Z,0.70
2022-09-09T23:51:34.757Z,1.03
2022-09-09T23:54:05.023Z,1.00
2022-09-09T23:56:38.065Z,1.10
2022-09-09T23:59:06.963Z,0.90
